Time;durP1;ratioP1;P1;durP2;ratioP2;P2;SDS_P1;SDS_P2;PMS_P1;PMS_P2;Temp;Humidity;BMP_temperature;BMP_pressure;BME280_temperature;BME280_humidity;BME280_pressure;Samples;Min_cycle;Max_cycle;Signal;HPM_P1;HPM_P2
2022/05/27 00:00:53;;;;;;;5.25;1.38;;;15.60;99.90;;;;;;5016842;28;20322;-67
2022/05/27 00:03:19;;;;;;;3.47;1.10;;;15.60;99.90;;;;;;5017601;28;20078;-68
2022/05/27 00:05:49;;;;;;;6.22;1.60;;;15.70;99.90;;;;;;5017711;28;20037;-68
2022/05/27 00:08:16;;;;;;;9.38;1.67;;;15.70;99.90;;;;;;5016795;28;20070;-68
2022/05/27 00:10:42;;;;;;;5.68;1.50;;;15.70;99.90;;;;;;5017529;28;20380;-67
2022/05/27 00:13:08;;;;;;;7.85;1.40;;;15.90;99.90;;;;;;5017371;28;20033;-68
2022/05/27 00:15:35;;;;;;;8.82;1.60;;;15.90;99.90;;;;;;5017421;28;20065;-71
2022/05/27 00:18:01;;;;;;;7.43;1.52;;;15.60;99.90;;;;;;5017361;28;20314;-65
2022/05/27 00:20:27;;;;;;;7.10;1.88;;;15.50;99.90;;;;;;5017235;28;20033;-63
2022/05/27 00:22:53;;;;;;;4.43;1.45;;;15.50;99.90;;;;;;5017055;28;20022;-67
2022/05/27 00:25:19;;;;;;;5.85;1.52;;;15.60;99.90;;;;;;5016533;28;20038;-65
2022/05/27 00:27:45;;;;;;;5.47;1.42;;;15.70;99.90;;;;;;5017183;28;20084;-66
2022/05/27 00:30:12;;;;;;;7.93;1.50;;;15.70;99.90;;;;;;5016389;28;20041;-67
2022/05/27 00:32:38;;;;;;;10.32;2.00;;;15.80;99.90;;;;;;5016225;28;20045;-69
2022/05/27 00:35:05;;;;;;;6.20;1.83;;;15.90;99.90;;;;;;5016378;28;20077;-67
2022/05/27 00:37:31;;;;;;;8.90;1.70;;;15.90;99.90;;;;;;5016399;28;20030;-69
2022/05/27 00:39:57;;;;;;;7.00;1.67;;;15.80;99.90;;;;;;5017168;28;20068;-63
2022/05/27 00:42:23;;;;;;;10.75;2.05;;;15.80;99.90;;;;;;5016982;28;20034;-64
2022/05/27 00:44:48;;;;;;;6.53;2.00;;;15.90;99.90;;;;;;5017071;28;20045;-68
2022/05/27 00:47:18;;;;;;;7.15;1.75;;;15.80;99.90;;;;;;5017128;28;20425;-66
2022/05/27 00:49:48;;;;;;;6.30;1.90;;;15.70;99.90;;;;;;5016330;28;20045;-67
2022/05/27 00:52:17;;;;;;;4.97;1.40;;;15.80;99.90;;;;;;5017203;28;20461;-66
2022/05/27 00:54:44;;;;;;;4.47;1.48;;;15.80;99.90;;;;;;5017205;28;20104;-68
2022/05/27 00:57:14;;;;;;;8.65;1.70;;;15.70;99.90;;;;;;5016213;28;20030;-63
2022/05/27 00:59:54;;;;;;;6.68;1.42;;;15.80;99.90;;;;;;5017174;28;20026;-66
2022/05/27 01:02:20;;;;;;;8.25;2.10;;;16.00;99.90;;;;;;5016981;28;20070;-63
2022/05/27 01:04:47;;;;;;;8.88;2.03;;;15.90;99.90;;;;;;5016861;28;20033;-67
2022/05/27 01:07:13;;;;;;;7.35;1.77;;;15.90;99.90;;;;;;5016774;28;20034;-67
2022/05/27 01:09:42;;;;;;;6.38;1.90;;;15.60;99.90;;;;;;5016897;28;20034;-70
2022/05/27 01:12:36;;;;;;;8.90;2.28;;;15.60;99.90;;;;;;5016739;28;20030;-67
2022/05/27 01:15:31;;;;;;;9.07;2.30;;;15.50;99.90;;;;;;5016753;28;20368;-67
2022/05/27 01:18:14;;;;;;;7.38;2.10;;;15.60;99.90;;;;;;4981129;28;20383;-67
2022/05/27 01:20:40;;;;;;;9.55;1.90;;;15.70;99.90;;;;;;5016769;28;20301;-67
2022/05/27 01:23:23;;;;;;;8.88;2.30;;;15.60;99.90;;;;;;5016647;28;20026;-65
2022/05/27 01:26:04;;;;;;;;;;;15.70;99.90;;;;;;5017669;28;20026;-67
2022/05/27 01:28:44;;;;;;;8.68;2.15;;;15.90;99.90;;;;;;5016626;28;19909;-64
2022/05/27 01:31:22;;;;;;;5.82;1.88;;;15.80;99.90;;;;;;5016837;28;20072;-66
2022/05/27 01:34:05;;;;;;;10.63;1.98;;;15.90;99.90;;;;;;5015880;28;20171;-67
2022/05/27 01:36:50;;;;;;;11.02;2.05;;;16.10;99.90;;;;;;5019562;28;20053;-69
2022/05/27 01:40:05;;;;;;;7.95;2.05;;;16.00;99.90;;;;;;5020254;28;20028;-65
2022/05/27 01:42:51;;;;;;;8.02;2.33;;;15.90;99.90;;;;;;4963594;28;20031;-66
2022/05/27 01:45:26;;;;;;;9.95;2.28;;;15.70;99.90;;;;;;4979669;28;20039;-68
2022/05/27 01:48:16;;;;;;;9.45;2.17;;;15.70;99.90;;;;;;5009918;28;20053;-65
2022/05/27 01:50:59;;;;;;;8.38;2.10;;;15.80;99.90;;;;;;5019340;28;20109;-68
2022/05/27 01:53:37;;;;;;;7.13;2.30;;;15.80;99.90;;;;;;5019175;28;20030;-68
2022/05/27 01:56:15;;;;;;;8.25;2.67;;;15.90;99.90;;;;;;5019798;28;20042;-67
2022/05/27 01:58:56;;;;;;;8.07;2.40;;;15.90;99.90;;;;;;5020130;28;20033;-66
2022/05/27 02:01:27;;;;;;;14.20;2.65;;;16.10;99.90;;;;;;5019727;28;20045;-65
2022/05/27 02:04:08;;;;;;;9.32;2.40;;;16.20;99.90;;;;;;5019723;28;20120;-64
2022/05/27 02:06:43;;;;;;;12.70;2.50;;;16.10;99.90;;;;;;5019847;28;20026;-66
2022/05/27 02:09:24;;;;;;;10.93;2.30;;;16.00;99.90;;;;;;5019598;28;20036;-64
2022/05/27 02:12:08;;;;;;;11.90;3.05;;;15.80;99.90;;;;;;5019685;28;20084;-67
2022/05/27 02:14:46;;;;;;;12.13;3.35;;;15.70;99.90;;;;;;5019472;28;20064;-66
2022/05/27 02:17:18;;;;;;;10.70;3.03;;;15.80;99.90;;;;;;5018707;28;20057;-62
2022/05/27 02:19:52;;;;;;;11.15;2.83;;;15.80;99.90;;;;;;5019415;28;20026;-67
2022/05/27 02:22:23;;;;;;;11.18;3.10;;;15.90;99.90;;;;;;5019494;28;20416;-68
2022/05/27 02:24:54;;;;;;;14.05;3.20;;;15.90;99.90;;;;;;5019454;28;20033;-66
2022/05/27 02:27:35;;;;;;;11.43;3.45;;;15.90;99.90;;;;;;5019483;28;20113;-63
2022/05/27 02:30:05;;;;;;;8.52;3.20;;;16.00;99.90;;;;;;5019161;28;20038;-66
2022/05/27 02:32:44;;;;;;;12.35;3.50;;;16.00;99.90;;;;;;5019199;28;20026;-66
2022/05/27 02:35:20;;;;;;;16.48;3.97;;;16.00;99.90;;;;;;5019136;28;20136;-64
2022/05/27 02:37:49;;;;;;;17.08;4.10;;;15.90;99.90;;;;;;5018550;28;20030;-67
2022/05/27 02:40:19;;;;;;;15.15;4.15;;;15.90;99.90;;;;;;5019116;28;20033;-66
2022/05/27 02:43:21;;;;;;;14.95;3.80;;;15.80;99.90;;;;;;5019294;28;20018;-66
2022/05/27 02:46:17;;;;;;;10.27;3.30;;;15.90;99.90;;;;;;5017251;28;20041;-68
2022/05/27 02:48:52;;;;;;;14.75;4.50;;;16.00;99.90;;;;;;5018894;28;20034;-66
2022/05/27 02:51:30;;;;;;;14.13;4.13;;;15.90;99.90;;;;;;5018862;28;20040;-64
2022/05/27 02:54:17;;;;;;;15.43;4.50;;;15.90;99.90;;;;;;5018771;28;20034;-67
2022/05/27 02:56:51;;;;;;;16.70;4.53;;;15.80;99.90;;;;;;5018999;28;20125;-67
2022/05/27 02:59:18;;;;;;;16.13;4.65;;;15.80;99.90;;;;;;5018956;28;20398;-65
2022/05/27 03:01:47;;;;;;;16.58;4.80;;;15.70;99.90;;;;;;5018550;28;20440;-67
2022/05/27 03:04:17;;;;;;;12.75;4.78;;;15.70;99.90;;;;;;5018679;28;20025;-67
2022/05/27 03:07:10;;;;;;;16.58;5.85;;;15.50;99.90;;;;;;5018282;28;20302;-68
2022/05/27 03:09:53;;;;;;;15.45;5.55;;;15.40;99.90;;;;;;5017764;28;20029;-67
2022/05/27 03:12:34;;;;;;;18.42;6.20;;;15.30;99.90;;;;;;5018606;28;20413;-67
2022/05/27 03:15:27;;;;;;;17.50;6.30;;;15.10;99.90;;;;;;5018416;28;20041;-67
2022/05/27 03:18:02;;;;;;;19.17;7.32;;;15.00;99.90;;;;;;5018395;28;20033;-68
2022/05/27 03:20:48;;;;;;;21.75;7.45;;;14.70;99.90;;;;;;5018280;28;20379;-67
2022/05/27 03:23:44;;;;;;;17.42;7.63;;;14.80;99.90;;;;;;5019228;28;20037;-68
2022/05/27 03:26:09;;;;;;;19.98;8.13;;;14.60;99.90;;;;;;5018893;28;20042;-65
2022/05/27 03:28:52;;;;;;;22.20;8.57;;;14.50;99.90;;;;;;5017495;28;20034;-68
2022/05/27 03:31:32;;;;;;;19.35;8.30;;;14.50;99.90;;;;;;5018421;28;20038;-69
2022/05/27 03:34:04;;;;;;;18.90;8.80;;;14.60;99.90;;;;;;5018459;28;20033;-69
2022/05/27 03:36:39;;;;;;;21.77;9.18;;;14.70;99.90;;;;;;5017374;28;20040;-66
2022/05/27 03:39:21;;;;;;;20.45;8.27;;;14.70;99.90;;;;;;5018320;28;20418;-67
2022/05/27 03:41:56;;;;;;;24.33;9.00;;;14.70;99.90;;;;;;5018088;28;20241;-73
2022/05/27 03:44:26;;;;;;;22.90;9.63;;;14.80;99.90;;;;;;5017488;28;20030;-72
2022/05/27 03:46:54;;;;;;;24.50;9.52;;;14.70;99.90;;;;;;5018148;28;20298;-67
2022/05/27 03:49:20;;;;;;;27.13;11.85;;;14.70;99.90;;;;;;5017785;28;20192;-69
2022/05/27 03:52:07;;;;;;;20.52;9.80;;;14.60;99.90;;;;;;5016897;28;20384;-69
2022/05/27 03:54:34;;;;;;;25.92;10.25;;;14.50;99.90;;;;;;5016893;28;20037;-67
2022/05/27 03:57:00;;;;;;;20.73;10.73;;;14.50;99.90;;;;;;5017555;28;20026;-67
2022/05/27 03:59:27;;;;;;;20.83;10.35;;;14.60;99.90;;;;;;5017611;28;20330;-71
2022/05/27 04:01:55;;;;;;;24.27;11.35;;;14.60;99.90;;;;;;5017493;28;20119;-67
2022/05/27 04:04:25;;;;;;;22.90;11.00;;;14.70;99.90;;;;;;5017733;28;20033;-68
2022/05/27 04:06:51;;;;;;;24.13;11.68;;;14.80;99.90;;;;;;5017605;28;20394;-68
2022/05/27 04:09:19;;;;;;;23.60;11.27;;;14.90;99.90;;;;;;5016825;28;20320;-64
2022/05/27 04:11:45;;;;;;;23.33;12.13;;;14.80;99.90;;;;;;5017275;28;20057;-64
2022/05/27 04:14:12;;;;;;;25.70;12.18;;;14.70;99.90;;;;;;5017227;28;20360;-65
2022/05/27 04:16:38;;;;;;;28.08;13.38;;;14.60;99.90;;;;;;5017250;28;20041;-64
2022/05/27 04:19:04;;;;;;;32.72;13.65;;;14.70;99.90;;;;;;5017274;28;20102;-66
2022/05/27 04:21:31;;;;;;;23.90;13.85;;;14.80;99.90;;;;;;5017262;28;20054;-64
2022/05/27 04:23:58;;;;;;;23.50;12.18;;;14.90;99.90;;;;;;5017089;28;20275;-63
2022/05/27 04:26:25;;;;;;;26.55;13.38;;;14.70;99.90;;;;;;5017140;28;20077;-62
2022/05/27 04:28:51;;;;;;;25.42;12.60;;;14.70;99.90;;;;;;5017553;28;20121;-63
2022/05/27 04:31:17;;;;;;;21.48;13.40;;;14.70;99.90;;;;;;5016988;28;20129;-62
2022/05/27 04:33:43;;;;;;;27.05;13.30;;;14.60;99.90;;;;;;5017065;28;20398;-62
2022/05/27 04:36:09;;;;;;;26.58;14.57;;;14.50;99.90;;;;;;5016374;28;20038;-63
2022/05/27 04:38:36;;;;;;;25.98;13.50;;;14.60;99.90;;;;;;5017006;28;20022;-62
2022/05/27 04:41:02;;;;;;;26.67;13.75;;;14.60;99.90;;;;;;5017560;28;20264;-63
2022/05/27 04:43:28;;;;;;;25.20;13.65;;;14.60;99.90;;;;;;5017041;28;20026;-64
2022/05/27 04:45:54;;;;;;;24.70;13.20;;;14.70;99.90;;;;;;4999835;28;20071;-64
2022/05/27 04:48:20;;;;;;;23.83;13.25;;;14.80;99.90;;;;;;5016975;28;20112;-63
2022/05/27 04:50:46;;;;;;;24.60;13.43;;;14.90;99.90;;;;;;5017019;28;20033;-63
2022/05/27 04:53:13;;;;;;;27.13;13.60;;;15.00;99.90;;;;;;5016356;28;20041;-61
2022/05/27 04:55:39;;;;;;;23.25;12.95;;;14.90;99.90;;;;;;5016990;28;20424;-66
2022/05/27 04:58:06;;;;;;;29.08;14.15;;;14.90;99.90;;;;;;5017024;28;20022;-66
2022/05/27 05:00:44;;;;;;;25.75;13.95;;;15.10;99.90;;;;;;5017215;28;20046;-64
2022/05/27 05:03:11;;;;;;;23.48;14.48;;;15.30;99.90;;;;;;5016911;28;20034;-65
2022/05/27 05:05:37;;;;;;;27.20;15.30;;;15.20;99.90;;;;;;5016282;28;20124;-65
2022/05/27 05:08:15;;;;;;;27.00;13.77;;;15.30;99.90;;;;;;5016899;28;20141;-67
2022/05/27 05:10:41;;;;;;;22.67;13.30;;;15.20;99.90;;;;;;5019939;28;20389;-65
2022/05/27 05:13:07;;;;;;;24.42;12.43;;;15.00;99.90;;;;;;5020777;28;20026;-69
2022/05/27 05:15:33;;;;;;;23.25;13.23;;;14.90;99.90;;;;;;5020703;28;20038;-67
2022/05/27 05:17:58;;;;;;;30.25;13.98;;;15.00;99.90;;;;;;5020842;28;20110;-66
2022/05/27 05:20:29;;;;;;;26.90;14.00;;;15.20;99.90;;;;;;5003605;28;20022;-64
2022/05/27 05:22:55;;;;;;;27.50;13.82;;;15.30;99.90;;;;;;5020677;28;20386;-69
2022/05/27 05:25:23;;;;;;;28.15;14.00;;;15.20;99.90;;;;;;5020920;28;20026;-69
2022/05/27 05:27:49;;;;;;;30.90;14.85;;;15.40;99.90;;;;;;5020862;28;20072;-67
2022/05/27 05:30:18;;;;;;;27.58;14.27;;;15.40;99.90;;;;;;5020693;28;20034;-65
2022/05/27 05:32:44;;;;;;;30.20;14.63;;;15.40;99.90;;;;;;5020520;28;20053;-67
2022/05/27 05:35:12;;;;;;;28.00;13.82;;;15.20;99.90;;;;;;5020853;28;20026;-68
2022/05/27 05:37:38;;;;;;;26.27;13.32;;;15.30;99.90;;;;;;5020720;28;20409;-67
2022/05/27 05:40:05;;;;;;;27.92;13.70;;;15.40;99.90;;;;;;5020584;28;20185;-67
2022/05/27 05:42:31;;;;;;;34.78;14.80;;;15.50;99.90;;;;;;5020553;28;20030;-69
2022/05/27 05:44:59;;;;;;;29.00;13.48;;;15.60;99.90;;;;;;5019574;28;20061;-69
2022/05/27 05:47:25;;;;;;;33.47;13.82;;;15.60;99.90;;;;;;5020377;28;20050;-64
2022/05/27 05:49:51;;;;;;;31.38;13.95;;;15.50;99.90;;;;;;5020747;28;20297;-66
2022/05/27 05:52:17;;;;;;;30.27;12.77;;;15.60;99.90;;;;;;5020023;28;20030;-67
2022/05/27 05:54:43;;;;;;;24.73;11.40;;;15.50;99.90;;;;;;5019944;28;20045;-66
2022/05/27 05:57:09;;;;;;;20.95;11.40;;;15.60;99.90;;;;;;5020272;28;20062;-67
2022/05/27 05:59:37;;;;;;;18.23;8.80;;;15.80;99.90;;;;;;5020043;28;20041;-68
2022/05/27 06:02:04;;;;;;;22.73;8.55;;;15.60;99.90;;;;;;5019701;28;20121;-65
2022/05/27 06:04:29;;;;;;;16.60;8.18;;;15.70;99.90;;;;;;5020463;28;20386;-69
2022/05/27 06:06:56;;;;;;;19.70;8.10;;;15.70;99.90;;;;;;5020018;28;20129;-69
2022/05/27 06:09:25;;;;;;;19.60;8.13;;;15.80;99.90;;;;;;5019875;28;20038;-68
2022/05/27 06:11:55;;;;;;;22.10;7.75;;;15.80;99.90;;;;;;5019692;28;20064;-69
2022/05/27 06:14:21;;;;;;;20.45;7.00;;;15.90;99.90;;;;;;5019634;28;20030;-66
2022/05/27 06:16:48;;;;;;;16.58;7.50;;;15.90;99.90;;;;;;5018931;28;20052;-66
2022/05/27 06:19:13;;;;;;;15.02;5.78;;;16.00;99.90;;;;;;5019612;28;20038;-69
2022/05/27 06:21:39;;;;;;;17.00;5.97;;;15.90;99.90;;;;;;5002361;28;20037;-71
2022/05/27 06:24:06;;;;;;;13.95;5.95;;;15.90;99.90;;;;;;5019494;28;20030;-72
2022/05/27 06:26:31;;;;;;;17.42;5.45;;;15.90;99.90;;;;;;5019421;28;20065;-71
2022/05/27 06:34:29;;;;;;;14.00;4.90;;;16.30;99.90;;;;;;5019280;28;20244;-68
2022/05/27 06:37:05;;;;;;;11.73;4.65;;;16.50;99.90;;;;;;5002482;28;20129;-70
2022/05/27 06:39:34;;;;;;;11.80;4.25;;;16.60;99.90;;;;;;5019603;28;20029;-75
2022/05/27 06:42:01;;;;;;;8.82;4.43;;;16.70;99.90;;;;;;5018441;28;20085;-69
2022/05/27 06:44:30;;;;;;;8.63;4.25;;;16.80;99.90;;;;;;5018379;28;20064;-69
2022/05/27 06:46:57;;;;;;;10.90;4.38;;;16.70;99.90;;;;;;5018496;28;20026;-71
2022/05/27 06:49:23;;;;;;;11.73;3.80;;;16.90;99.90;;;;;;5018138;28;20409;-68
2022/05/27 06:51:50;;;;;;;11.02;3.90;;;16.90;99.90;;;;;;5018826;28;20038;-67
2022/05/27 06:54:17;;;;;;;9.00;3.50;;;17.00;99.90;;;;;;5018803;28;20501;-69
2022/05/27 06:56:44;;;;;;;8.65;3.53;;;17.00;99.90;;;;;;5018892;28;20093;-67
2022/05/27 06:59:14;;;;;;;8.70;3.83;;;17.00;99.90;;;;;;5018729;28;20116;-67
2022/05/27 07:01:40;;;;;;;10.63;4.70;;;17.20;99.90;;;;;;5018567;28;20295;-64
2022/05/27 07:04:06;;;;;;;10.32;3.92;;;17.20;99.90;;;;;;5017921;28;20034;-63
2022/05/27 07:06:41;;;;;;;8.27;3.55;;;17.20;99.90;;;;;;5018559;28;20108;-65
2022/05/27 07:09:08;;;;;;;8.82;3.30;;;17.30;99.90;;;;;;5018628;28;20054;-67
2022/05/27 07:11:35;;;;;;;7.32;3.38;;;17.30;99.90;;;;;;5017947;28;20069;-65
2022/05/27 07:14:02;;;;;;;5.85;2.80;;;17.40;99.90;;;;;;5017800;28;20297;-68
2022/05/27 07:16:28;;;;;;;8.43;3.03;;;17.40;99.90;;;;;;5018443;28;20040;-70
2022/05/27 07:18:55;;;;;;;6.57;3.10;;;17.30;99.90;;;;;;5017758;28;20030;-65
2022/05/27 07:21:20;;;;;;;5.38;3.13;;;17.40;99.90;;;;;;5018521;28;20026;-68
2022/05/27 07:23:47;;;;;;;7.72;3.40;;;17.60;99.90;;;;;;5018347;28;20045;-66
2022/05/27 07:26:12;;;;;;;6.53;3.33;;;17.60;99.90;;;;;;5017625;28;20042;-66
2022/05/27 07:28:38;;;;;;;7.47;3.70;;;17.50;99.90;;;;;;5018224;28;20115;-65
2022/05/27 07:31:05;;;;;;;9.73;3.88;;;17.50;99.90;;;;;;5018143;28;20428;-67
2022/05/27 07:33:30;;;;;;;7.75;3.17;;;17.40;99.90;;;;;;5017577;28;20038;-69
2022/05/27 07:35:56;;;;;;;6.30;3.22;;;17.50;99.90;;;;;;5017979;28;20452;-65
2022/05/27 07:38:23;;;;;;;6.55;3.00;;;17.60;99.90;;;;;;5017995;28;20099;-65
2022/05/27 07:40:48;;;;;;;6.07;2.75;;;17.70;99.90;;;;;;5017966;28;20294;-66
2022/05/27 07:43:14;;;;;;;6.05;2.47;;;17.80;99.90;;;;;;5017931;28;20034;-65
2022/05/27 07:45:42;;;;;;;9.02;2.75;;;17.80;99.90;;;;;;5017302;28;20279;-66
2022/05/27 07:48:09;;;;;;;7.75;2.42;;;17.90;99.90;;;;;;5017939;28;20042;-65
2022/05/27 07:50:37;;;;;;;7.18;2.67;;;18.10;99.90;;;;;;5017936;28;20042;-68
2022/05/27 07:53:03;;;;;;;6.03;2.83;;;18.00;99.90;;;;;;5017884;28;20030;-65
2022/05/27 07:55:30;;;;;;;8.52;2.40;;;17.90;99.90;;;;;;5017797;28;20148;-69
2022/05/27 07:57:56;;;;;;;5.75;1.98;;;17.70;99.90;;;;;;5017060;28;20042;-67
2022/05/27 08:00:27;;;;;;;7.05;2.05;;;17.60;99.90;;;;;;5017956;28;20048;-68
2022/05/27 08:02:52;;;;;;;4.63;2.03;;;17.50;99.90;;;;;;5017724;28;20418;-64
2022/05/27 08:05:23;;;;;;;7.05;2.55;;;17.50;99.90;;;;;;5016964;28;20250;-68
2022/05/27 08:07:50;;;;;;;7.30;2.63;;;17.70;99.90;;;;;;5017468;28;20049;-66
2022/05/27 08:10:19;;;;;;;5.28;2.38;;;18.00;99.90;;;;;;5018117;28;20113;-67
2022/05/27 08:12:45;;;;;;;5.82;2.15;;;18.40;99.90;;;;;;5016811;28;20034;-64
2022/05/27 08:15:13;;;;;;;6.07;1.70;;;18.70;99.90;;;;;;5017417;28;20049;-65
2022/05/27 08:17:39;;;;;;;5.32;2.05;;;19.00;99.90;;;;;;5017302;28;20033;-67
2022/05/27 08:20:05;;;;;;;3.65;1.70;;;19.10;99.90;;;;;;5017312;28;20030;-69
2022/05/27 08:22:32;;;;;;;5.88;1.90;;;19.00;99.90;;;;;;5017383;28;20045;-66
2022/05/27 08:24:58;;;;;;;4.45;1.92;;;19.20;99.90;;;;;;5017268;28;20026;-63
2022/05/27 08:27:24;;;;;;;3.05;1.65;;;19.30;99.90;;;;;;5017419;28;20049;-69
2022/05/27 08:29:50;;;;;;;8.45;2.30;;;19.00;99.90;;;;;;5017249;28;20390;-68
2022/05/27 08:32:16;;;;;;;5.55;1.92;;;18.80;99.90;;;;;;5017385;28;20034;-65
2022/05/27 08:40:29;;;;;;;3.13;1.35;;;18.50;99.90;;;;;;5017181;28;20049;-69
2022/05/27 08:42:54;;;;;;;;;;;18.50;99.90;;;;;;5017439;28;20026;-67
2022/05/27 08:45:38;;;;;;;5.97;1.88;;;18.50;99.90;;;;;;5017122;28;19905;-63
2022/05/27 08:48:09;;;;;;;8.38;2.40;;;18.70;99.90;;;;;;5017018;28;20040;-65
2022/05/27 08:50:46;;;;;;;3.85;1.75;;;18.90;99.90;;;;;;5017005;28;20275;-67
2022/05/27 08:53:41;;;;;;;3.70;1.88;;;18.90;99.90;;;;;;5017058;28;20057;-65
2022/05/27 08:59:32;;;;;;;3.88;1.85;;;19.10;99.90;;;;;;5017068;28;20053;-67
2022/05/27 09:02:03;;;;;;;5.35;1.50;;;19.10;99.90;;;;;;5016960;28;20050;-61
2022/05/27 09:05:01;;;;;;;7.53;1.75;;;19.00;99.90;;;;;;5016999;28;20034;-64
2022/05/27 09:07:40;;;;;;;4.85;1.83;;;19.30;99.90;;;;;;5017372;28;20026;-67
2022/05/27 09:10:35;;;;;;;6.07;1.70;;;19.30;99.90;;;;;;5017439;28;20105;-62
2022/05/27 09:13:07;;;;;;;4.65;1.50;;;19.60;99.90;;;;;;5015264;28;20033;-68
2022/05/27 09:16:00;;;;;;;4.13;1.50;;;20.00;99.90;;;;;;4999646;28;20132;-64
2022/05/27 09:18:38;;;;;;;4.78;1.98;;;20.20;99.90;;;;;;5016670;28;20030;-64
2022/05/27 09:21:41;;;;;;;6.10;1.80;;;20.30;99.90;;;;;;5015909;28;20057;-62
2022/05/27 09:24:30;;;;;;;7.97;1.90;;;19.90;99.90;;;;;;5016878;28;20359;-67
2022/05/27 09:27:04;;;;;;;5.43;2.00;;;19.20;99.90;;;;;;5016165;28;20037;-62
2022/05/27 09:29:48;;;;;;;6.75;2.00;;;19.20;99.90;;;;;;5017022;28;20082;-67
2022/05/27 09:32:25;;;;;;;6.63;2.08;;;19.30;99.90;;;;;;5017231;28;20440;-64
2022/05/27 09:34:53;;;;;;;10.07;2.30;;;19.60;99.90;;;;;;5016590;28;20026;-64
2022/05/27 09:37:30;;;;;;;5.35;1.85;;;19.70;99.90;;;;;;5016568;28;20018;-66
2022/05/27 09:40:00;;;;;;;8.00;1.95;;;19.30;99.90;;;;;;5016632;28;20108;-67
2022/05/27 09:42:35;;;;;;;9.85;1.95;;;19.10;99.90;;;;;;5015801;28;20026;-65
2022/05/27 09:45:01;;;;;;;8.93;1.75;;;19.20;99.90;;;;;;5016589;28;20033;-64
2022/05/27 09:47:33;;;;;;;7.68;1.85;;;19.10;99.90;;;;;;5015740;28;20042;-63
2022/05/27 09:50:05;;;;;;;5.88;1.80;;;19.30;99.90;;;;;;5016886;28;20034;-63
2022/05/27 09:52:40;;;;;;;8.02;2.40;;;19.40;99.90;;;;;;5016728;28;20408;-66
2022/05/27 09:55:41;;;;;;;7.82;2.03;;;19.50;99.90;;;;;;5016829;28;20038;-66
2022/05/27 09:58:07;;;;;;;7.30;1.90;;;19.50;99.90;;;;;;5019963;28;20022;-67
2022/05/27 10:00:36;;;;;;;6.38;2.30;;;19.60;99.90;;;;;;5019744;28;20057;-64
2022/05/27 10:03:22;;;;;;;6.43;2.10;;;19.60;99.90;;;;;;5019850;28;20029;-62
2022/05/27 10:05:55;;;;;;;4.90;1.83;;;19.60;99.90;;;;;;5019068;28;20038;-64
2022/05/27 10:09:01;;;;;;;7.10;2.20;;;19.90;99.90;;;;;;5019897;28;20076;-64
2022/05/27 10:11:30;;;;;;;9.80;2.63;;;20.30;99.90;;;;;;4991907;28;20041;-66
2022/05/27 10:14:22;;;;;;;7.05;1.90;;;20.40;99.90;;;;;;5019664;28;20030;-64
2022/05/27 10:17:11;;;;;;;6.38;1.75;;;20.30;99.90;;;;;;5019870;28;20045;-65
2022/05/27 10:19:41;;;;;;;10.27;2.45;;;20.20;99.90;;;;;;5019557;28;20053;-68
2022/05/27 10:22:20;;;;;;;7.45;1.83;;;20.10;99.90;;;;;;5019535;28;20034;-65
2022/05/27 10:25:05;;;;;;;6.90;2.00;;;20.20;99.90;;;;;;5019567;28;20062;-65
2022/05/27 10:27:37;;;;;;;7.40;1.75;;;20.30;99.90;;;;;;5019687;28;20323;-65
2022/05/27 10:30:19;;;;;;;6.87;2.23;;;20.50;99.90;;;;;;5018617;28;20033;-67
2022/05/27 10:32:45;;;;;;;7.70;2.22;;;20.60;99.90;;;;;;5018588;28;20560;-66
2022/05/27 10:35:20;;;;;;;9.52;2.85;;;20.40;99.90;;;;;;5002232;28;20041;-66
2022/05/27 10:38:10;;;;;;;10.23;2.10;;;20.50;99.90;;;;;;5019268;28;20064;-66
2022/05/27 10:40:43;;;;;;;9.38;2.67;;;20.40;99.90;;;;;;5019791;28;20037;-68
2022/05/27 10:43:47;;;;;;;7.65;2.47;;;20.20;99.90;;;;;;5018439;28;20351;-63
2022/05/27 10:46:15;;;;;;;5.22;2.22;;;19.90;99.90;;;;;;5002025;28;20353;-65
2022/05/27 10:48:51;;;;;;;10.23;2.47;;;20.10;99.90;;;;;;5019072;28;20356;-70
2022/05/27 10:51:32;;;;;;;8.63;2.80;;;20.30;99.90;;;;;;5018985;28;20069;-65
2022/05/27 10:54:01;;;;;;;7.68;2.35;;;20.30;99.90;;;;;;5019226;28;20305;-69
2022/05/27 10:56:32;;;;;;;10.25;2.65;;;20.30;99.90;;;;;;5018938;28;20026;-65
2022/05/27 11:02:19;;;;;;;9.55;2.63;;;21.00;99.90;;;;;;5018849;28;20046;-64
2022/05/27 11:04:51;;;;;;;6.90;2.53;;;22.10;99.90;;;;;;5017917;28;20128;-64
2022/05/27 11:07:38;;;;;;;6.97;2.40;;;22.20;99.90;;;;;;5017841;28;20022;-64
2022/05/27 11:10:22;;;;;;;7.57;2.40;;;22.90;99.90;;;;;;5001626;28;20026;-64
2022/05/27 11:16:56;;;;;;;7.90;2.10;;;22.10;99.90;;;;;;5017647;28;20117;-67
2022/05/27 11:19:48;;;;;;;6.18;2.33;;;22.70;99.90;;;;;;5018599;28;20032;-68
2022/05/27 11:22:27;;;;;;;8.07;2.10;;;23.80;99.90;;;;;;5017174;28;20053;-63
2022/05/27 11:25:26;;;;;;;8.80;2.40;;;24.60;99.60;;;;;;5018291;28;20188;-64
2022/05/27 11:28:01;;;;;;;9.40;2.60;;;23.90;99.30;;;;;;5018276;28;20059;-62
2022/05/27 11:30:52;;;;;;;9.88;2.28;;;23.20;99.90;;;;;;5018300;28;20030;-64
2022/05/27 11:33:28;;;;;;;6.93;2.50;;;23.50;99.50;;;;;;5018093;28;20029;-67
2022/05/27 11:36:17;;;;;;;6.55;2.25;;;23.30;97.70;;;;;;5018555;28;20036;-63
2022/05/27 11:38:51;;;;;;;6.68;1.80;;;22.80;98.20;;;;;;5018071;28;20348;-64
2022/05/27 11:41:43;;;;;;;7.07;1.70;;;23.40;97.30;;;;;;5018024;28;20026;-65
2022/05/27 11:44:28;;;;;;;5.90;1.92;;;24.40;95.90;;;;;;5018288;28;20045;-64
2022/05/27 11:47:13;;;;;;;6.10;1.77;;;24.70;91.90;;;;;;5017154;28;20309;-67
2022/05/27 11:49:47;;;;;;;6.05;2.08;;;23.80;92.20;;;;;;5017076;28;20279;-66
2022/05/27 11:52:31;;;;;;;6.22;1.85;;;23.40;93.40;;;;;;5017831;28;20034;-64
2022/05/27 11:55:12;;;;;;;6.00;1.92;;;23.90;93.10;;;;;;5017701;28;20041;-66
2022/05/27 11:57:56;;;;;;;8.63;2.05;;;23.80;93.50;;;;;;5000680;28;20026;-65
2022/05/27 12:00:26;;;;;;;8.65;2.38;;;25.00;91.10;;;;;;5016879;28;20050;-66
2022/05/27 12:03:10;;;;;;;8.85;2.22;;;25.30;90.40;;;;;;5017668;28;20116;-67
2022/05/27 12:05:45;;;;;;;8.95;2.53;;;25.80;90.00;;;;;;5017628;28;20030;-68
2022/05/27 12:08:24;;;;;;;8.00;2.42;;;25.40;88.30;;;;;;5017666;28;20033;-68
2022/05/27 12:10:59;;;;;;;6.85;1.80;;;26.10;88.90;;;;;;5017585;28;20049;-64
2022/05/27 12:13:37;;;;;;;5.38;2.00;;;26.70;83.40;;;;;;5018030;28;20105;-62
2022/05/27 12:16:12;;;;;;;8.00;1.95;;;26.60;81.10;;;;;;5018155;28;20310;-65
2022/05/27 12:18:56;;;;;;;9.77;2.15;;;26.60;81.50;;;;;;5000180;28;20409;-68
2022/05/27 12:21:26;;;;;;;5.97;1.88;;;26.40;81.10;;;;;;5016897;28;20080;-66
2022/05/27 12:24:24;;;;;;;6.28;2.15;;;26.90;80.70;;;;;;5017434;28;20033;-63
2022/05/27 12:26:52;;;;;;;7.75;1.85;;;27.10;77.60;;;;;;5016117;28;20052;-69
2022/05/27 12:29:21;;;;;;;8.07;2.13;;;26.60;78.50;;;;;;5017289;28;20028;-66
2022/05/27 12:31:49;;;;;;;6.63;2.00;;;25.80;79.20;;;;;;5016579;28;20092;-63
2022/05/27 12:34:27;;;;;;;9.05;1.95;;;25.20;81.30;;;;;;5017164;28;20341;-69
2022/05/27 12:37:00;;;;;;;7.40;2.00;;;24.90;82.30;;;;;;5017066;28;20037;-66
2022/05/27 12:39:28;;;;;;;9.85;2.38;;;25.20;82.40;;;;;;5017134;28;20113;-68
2022/05/27 12:42:11;;;;;;;8.82;2.15;;;25.90;80.30;;;;;;5016864;28;20313;-65
2022/05/27 12:44:39;;;;;;;7.53;1.92;;;26.20;79.10;;;;;;5017093;28;20034;-68
2022/05/27 12:47:14;;;;;;;8.43;1.80;;;25.60;79.00;;;;;;5016497;28;20045;-67
2022/05/27 12:49:44;;;;;;;10.32;2.17;;;25.80;78.80;;;;;;5017389;28;20297;-64
2022/05/27 12:52:29;;;;;;;9.75;2.05;;;26.60;76.30;;;;;;5016359;28;20517;-66
2022/05/27 12:54:56;;;;;;;5.70;1.73;;;25.90;77.60;;;;;;5017086;28;20317;-67
2022/05/27 13:01:00;;;;;;;6.43;2.17;;;28.30;71.00;;;;;;5016846;28;20061;-66
2022/05/27 13:03:35;;;;;;;7.65;2.08;;;28.60;71.20;;;;;;5017030;28;20390;-66
2022/05/27 13:06:07;;;;;;;10.38;2.63;;;27.90;69.80;;;;;;5016954;28;20040;-69
2022/05/27 13:08:43;;;;;;;10.00;2.40;;;28.10;70.30;;;;;;5017383;28;20044;-70
2022/05/27 13:11:39;;;;;;;5.00;1.92;;;27.80;69.80;;;;;;5016952;28;20041;-66
2022/05/27 13:14:04;;;;;;;7.20;2.38;;;28.30;69.50;;;;;;5017184;28;20099;-64
2022/05/27 13:16:54;;;;;;;10.18;2.33;;;28.90;67.30;;;;;;5016670;28;20113;-63
2022/05/27 13:19:23;;;;;;;8.07;2.28;;;29.60;67.40;;;;;;5016120;28;20075;-66
2022/05/27 13:21:52;;;;;;;5.43;2.00;;;30.30;64.80;;;;;;5016897;28;20026;-65
2022/05/27 13:24:17;;;;;;;10.73;2.42;;;30.50;62.90;;;;;;5016777;28;20374;-66
2022/05/27 13:26:59;;;;;;;8.35;2.33;;;29.90;63.30;;;;;;5017149;28;20060;-66
2022/05/27 13:29:39;;;;;;;8.38;2.10;;;29.40;63.20;;;;;;5016812;28;20321;-66
2022/05/27 13:32:11;;;;;;;7.35;2.40;;;29.10;64.00;;;;;;5020520;28;20037;-65
2022/05/27 13:34:50;;;;;;;6.55;2.25;;;29.30;63.40;;;;;;5020509;28;20080;-64
2022/05/27 13:37:32;;;;;;;8.40;2.38;;;28.80;63.10;;;;;;5019650;28;20306;-67